This is the latest recevied weather packets stored in our database for station/object DC1SK-6. If no packets are shown the sender has not sent any weather packets the latest 10 day(s).
| Time | Temp. | Humidity | Pressure | Rain* | Wind** | Luminosity | Snow |
|---|---|---|---|---|---|---|---|
| 1777781334 | 8.33° C | 85% | - | 0 mm | - | 3 W/m² | - |
| 1777780844 | 7.78° C | 85% | - | 0 mm | - | 3 W/m² | - |
| 1777780314 | 7.78° C | 84% | - | 0 mm | - | 3 W/m² | - |
| 1777779738 | 8.33° C | 85% | - | 0 mm | - | 0 W/m² | - |
| 1777779138 | 8.33° C | 85% | - | 0 mm | - | 0 W/m² | - |
| 1777778649 | 8.33° C | 85% | - | 0 mm | - | 0 W/m² | - |
| 1777777624 | 8.33° C | 83% | - | 0 mm | - | 0 W/m² | - |
| 1777777069 | 8.33° C | 84% | - | 0 mm | - | 0 W/m² | - |
| 1777775914 | 8.33° C | 84% | - | 0 mm | - | 0 W/m² | - |
| 1777775358 | 8.33° C | 84% | - | 0 mm | - | 0 W/m² | - |
| 1777774878 | 8.33° C | 84% | - | 0 mm | - | 0 W/m² | - |
| 1777774353 | 8.89° C | 82% | - | 0 mm | - | 0 W/m² | - |
| 1777773774 | 8.33° C | 82% | - | 0 mm | - | 0 W/m² | - |
| 1777773224 | 8.89° C | 82% | - | 0 mm | - | 0 W/m² | - |
| 1777772659 | 8.89° C | 82% | - | 0 mm | - | 0 W/m² | - |
| 1777772107 | 8.89° C | 82% | - | 0 mm | - | 0 W/m² | - |
| 1777771493 | 8.89° C | 82% | - | 0 mm | - | 0 W/m² | - |
| 1777771004 | 8.89° C | 82% | - | 0 mm | - | 0 W/m² | - |
| 1777770449 | 8.89° C | 83% | - | 0 mm | - | 0 W/m² | - |
| 1777769934 | 8.89° C | 83% | - | 0 mm | - | 0 W/m² | - |
| 1777769369 | 8.89° C | 83% | - | 0 mm | - | 0 W/m² | - |
| 1777768884 | 10° C | 80% | - | 0 mm | - | 0 W/m² | - |
| 1777768360 | 9.44° C | 80% | - | 0 mm | - | 0 W/m² | - |
| 1777767693 | 9.44° C | 81% | - | 0 mm | - | 0 W/m² | - |
| 1777767126 | 18.89° C | 68% | - | 0 mm | - | 0 W/m² | - |
* Rain latest hour (hover to see other rain measurements)
** Current wind speed in m/s (hover to see current wind gust speed)